sensor_id;sensor_type;location;lat;lon;timestamp;temperature;humidity
15991;DHT22;8100;50.994;4.538;2023-06-10T00:01:28;20.90;99.90
15991;DHT22;8100;50.994;4.538;2023-06-10T00:04:16;20.90;99.90
15991;DHT22;8100;50.994;4.538;2023-06-10T00:07:05;20.80;99.90
15991;DHT22;8100;50.994;4.538;2023-06-10T00:09:54;20.70;99.90
15991;DHT22;8100;50.994;4.538;2023-06-10T00:12:41;20.70;99.90
15991;DHT22;8100;50.994;4.538;2023-06-10T00:15:29;20.60;99.90
15991;DHT22;8100;50.994;4.538;2023-06-10T00:18:17;20.60;99.90
15991;DHT22;8100;50.994;4.538;2023-06-10T00:21:04;20.50;99.90
15991;DHT22;8100;50.994;4.538;2023-06-10T00:23:53;20.50;99.90
15991;DHT22;8100;50.994;4.538;2023-06-10T00:26:41;20.50;99.90
15991;DHT22;8100;50.994;4.538;2023-06-10T00:29:28;20.40;99.90
15991;DHT22;8100;50.994;4.538;2023-06-10T00:32:15;20.30;99.90
15991;DHT22;8100;50.994;4.538;2023-06-10T00:35:03;20.30;99.90
15991;DHT22;8100;50.994;4.538;2023-06-10T00:37:51;20.10;1.00
15991;DHT22;8100;50.994;4.538;2023-06-10T00:40:40;19.90;1.00
15991;DHT22;8100;50.994;4.538;2023-06-10T00:43:28;19.80;99.90
15991;DHT22;8100;50.994;4.538;2023-06-10T00:46:16;19.60;1.00
15991;DHT22;8100;50.994;4.538;2023-06-10T00:49:04;19.50;16.70
15991;DHT22;8100;50.994;4.538;2023-06-10T00:51:52;19.40;99.90
15991;DHT22;8100;50.994;4.538;2023-06-10T00:54:40;19.30;1.00
15991;DHT22;8100;50.994;4.538;2023-06-10T00:57:29;19.20;99.90
15991;DHT22;8100;50.994;4.538;2023-06-10T01:00:16;19.10;99.90
15991;DHT22;8100;50.994;4.538;2023-06-10T01:03:04;19.00;99.90
15991;DHT22;8100;50.994;4.538;2023-06-10T01:05:57;19.00;99.90
15991;DHT22;8100;50.994;4.538;2023-06-10T01:08:54;18.90;1.00
15991;DHT22;8100;50.994;4.538;2023-06-10T01:11:47;18.90;99.90
15991;DHT22;8100;50.994;4.538;2023-06-10T01:14:36;18.80;1.00
15991;DHT22;8100;50.994;4.538;2023-06-10T01:17:24;18.70;1.00
15991;DHT22;8100;50.994;4.538;2023-06-10T01:20:13;18.60;99.90
15991;DHT22;8100;50.994;4.538;2023-06-10T01:23:02;18.60;1.00
15991;DHT22;8100;50.994;4.538;2023-06-10T01:25:54;18.50;99.90
15991;DHT22;8100;50.994;4.538;2023-06-10T01:28:48;18.40;1.00
15991;DHT22;8100;50.994;4.538;2023-06-10T01:31:43;18.40;1.00
15991;DHT22;8100;50.994;4.538;2023-06-10T01:34:32;18.30;1.00
15991;DHT22;8100;50.994;4.538;2023-06-10T01:37:22;18.20;1.00
15991;DHT22;8100;50.994;4.538;2023-06-10T01:40:13;18.10;1.00
15991;DHT22;8100;50.994;4.538;2023-06-10T01:43:01;18.10;1.00
15991;DHT22;8100;50.994;4.538;2023-06-10T01:45:48;18.00;1.00
15991;DHT22;8100;50.994;4.538;2023-06-10T01:48:37;18.00;1.00
15991;DHT22;8100;50.994;4.538;2023-06-10T01:51:24;17.90;99.90
15991;DHT22;8100;50.994;4.538;2023-06-10T01:54:12;17.90;99.90
15991;DHT22;8100;50.994;4.538;2023-06-10T01:57:01;17.80;99.90
15991;DHT22;8100;50.994;4.538;2023-06-10T01:59:48;17.80;99.90
15991;DHT22;8100;50.994;4.538;2023-06-10T02:02:35;17.80;99.90
15991;DHT22;8100;50.994;4.538;2023-06-10T02:05:22;17.80;99.90
15991;DHT22;8100;50.994;4.538;2023-06-10T02:08:09;17.80;99.90
15991;DHT22;8100;50.994;4.538;2023-06-10T02:10:57;17.70;1.00
15991;DHT22;8100;50.994;4.538;2023-06-10T02:13:45;17.60;1.00
15991;DHT22;8100;50.994;4.538;2023-06-10T02:16:32;17.60;1.00
15991;DHT22;8100;50.994;4.538;2023-06-10T02:19:20;17.60;1.00
15991;DHT22;8100;50.994;4.538;2023-06-10T02:22:08;17.50;1.00
15991;DHT22;8100;50.994;4.538;2023-06-10T02:24:55;17.50;1.00
15991;DHT22;8100;50.994;4.538;2023-06-10T02:27:42;17.50;1.00
15991;DHT22;8100;50.994;4.538;2023-06-10T02:30:31;17.40;1.00
15991;DHT22;8100;50.994;4.538;2023-06-10T02:33:18;17.40;1.00
15991;DHT22;8100;50.994;4.538;2023-06-10T02:36:05;17.40;1.00
15991;DHT22;8100;50.994;4.538;2023-06-10T02:38:53;17.30;1.00
15991;DHT22;8100;50.994;4.538;2023-06-10T02:41:40;17.20;1.00
15991;DHT22;8100;50.994;4.538;2023-06-10T02:44:27;17.20;1.00
15991;DHT22;8100;50.994;4.538;2023-06-10T02:47:16;17.20;1.00
15991;DHT22;8100;50.994;4.538;2023-06-10T02:50:03;17.10;1.00
15991;DHT22;8100;50.994;4.538;2023-06-10T02:52:50;17.00;1.00
15991;DHT22;8100;50.994;4.538;2023-06-10T02:55:38;17.10;1.00
15991;DHT22;8100;50.994;4.538;2023-06-10T02:58:25;17.00;1.00
15991;DHT22;8100;50.994;4.538;2023-06-10T03:01:12;17.00;1.00
15991;DHT22;8100;50.994;4.538;2023-06-10T03:04:01;17.00;1.00
15991;DHT22;8100;50.994;4.538;2023-06-10T03:06:49;16.90;1.00
15991;DHT22;8100;50.994;4.538;2023-06-10T03:09:36;16.90;1.00
15991;DHT22;8100;50.994;4.538;2023-06-10T03:12:23;16.90;1.00
15991;DHT22;8100;50.994;4.538;2023-06-10T03:15:11;16.80;1.00
15991;DHT22;8100;50.994;4.538;2023-06-10T03:17:58;16.90;1.00
15991;DHT22;8100;50.994;4.538;2023-06-10T03:20:47;16.90;1.00
15991;DHT22;8100;50.994;4.538;2023-06-10T03:23:34;16.80;1.00
15991;DHT22;8100;50.994;4.538;2023-06-10T03:26:22;16.80;1.00
15991;DHT22;8100;50.994;4.538;2023-06-10T03:29:09;16.80;1.00
15991;DHT22;8100;50.994;4.538;2023-06-10T03:31:56;16.70;1.00
15991;DHT22;8100;50.994;4.538;2023-06-10T03:34:43;16.70;1.00
15991;DHT22;8100;50.994;4.538;2023-06-10T03:37:34;16.70;1.00
15991;DHT22;8100;50.994;4.538;2023-06-10T03:40:21;16.70;1.00
15991;DHT22;8100;50.994;4.538;2023-06-10T03:43:09;16.60;1.00
15991;DHT22;8100;50.994;4.538;2023-06-10T03:45:56;16.60;1.00
15991;DHT22;8100;50.994;4.538;2023-06-10T03:48:44;16.60;1.00
15991;DHT22;8100;50.994;4.538;2023-06-10T03:51:31;16.50;1.00
15991;DHT22;8100;50.994;4.538;2023-06-10T03:54:20;16.50;1.00
15991;DHT22;8100;50.994;4.538;2023-06-10T03:57:07;16.50;1.00
15991;DHT22;8100;50.994;4.538;2023-06-10T03:59:54;16.50;1.00
15991;DHT22;8100;50.994;4.538;2023-06-10T04:02:42;16.50;1.00
15991;DHT22;8100;50.994;4.538;2023-06-10T04:05:31;16.50;1.00
15991;DHT22;8100;50.994;4.538;2023-06-10T04:08:19;16.60;1.00
15991;DHT22;8100;50.994;4.538;2023-06-10T04:11:07;16.60;1.00
15991;DHT22;8100;50.994;4.538;2023-06-10T04:13:55;16.60;1.00
15991;DHT22;8100;50.994;4.538;2023-06-10T04:16:42;16.70;1.00
15991;DHT22;8100;50.994;4.538;2023-06-10T04:19:29;16.80;1.00
15991;DHT22;8100;50.994;4.538;2023-06-10T04:22:17;16.90;1.00
15991;DHT22;8100;50.994;4.538;2023-06-10T04:25:04;16.90;1.00
15991;DHT22;8100;50.994;4.538;2023-06-10T04:27:54;16.90;1.00
15991;DHT22;8100;50.994;4.538;2023-06-10T04:30:42;17.00;1.00
15991;DHT22;8100;50.994;4.538;2023-06-10T04:33:29;17.10;1.00
15991;DHT22;8100;50.994;4.538;2023-06-10T04:36:16;17.20;1.00
15991;DHT22;8100;50.994;4.538;2023-06-10T04:39:03;17.30;1.00
15991;DHT22;8100;50.994;4.538;2023-06-10T04:41:51;17.40;1.00
15991;DHT22;8100;50.994;4.538;2023-06-10T04:44:40;17.40;1.00
15991;DHT22;8100;50.994;4.538;2023-06-10T04:47:27;17.50;1.00
15991;DHT22;8100;50.994;4.538;2023-06-10T04:50:15;17.60;1.00
15991;DHT22;8100;50.994;4.538;2023-06-10T04:53:02;17.80;1.00
15991;DHT22;8100;50.994;4.538;2023-06-10T04:55:50;18.00;1.00
15991;DHT22;8100;50.994;4.538;2023-06-10T04:58:37;18.10;1.00
15991;DHT22;8100;50.994;4.538;2023-06-10T05:01:26;18.30;1.00
15991;DHT22;8100;50.994;4.538;2023-06-10T05:04:14;18.40;1.00
15991;DHT22;8100;50.994;4.538;2023-06-10T05:07:01;18.60;1.00
15991;DHT22;8100;50.994;4.538;2023-06-10T05:09:48;18.80;1.00
15991;DHT22;8100;50.994;4.538;2023-06-10T05:12:35;18.90;1.00
15991;DHT22;8100;50.994;4.538;2023-06-10T05:15:24;19.10;1.00
15991;DHT22;8100;50.994;4.538;2023-06-10T05:18:12;19.20;1.00
15991;DHT22;8100;50.994;4.538;2023-06-10T05:21:00;19.30;1.00
15991;DHT22;8100;50.994;4.538;2023-06-10T05:23:47;19.40;1.00
15991;DHT22;8100;50.994;4.538;2023-06-10T05:26:34;19.60;1.00
15991;DHT22;8100;50.994;4.538;2023-06-10T05:29:23;19.60;1.00
15991;DHT22;8100;50.994;4.538;2023-06-10T05:32:10;19.80;1.00
15991;DHT22;8100;50.994;4.538;2023-06-10T05:34:59;19.90;1.00
15991;DHT22;8100;50.994;4.538;2023-06-10T05:37:48;20.00;1.00
15991;DHT22;8100;50.994;4.538;2023-06-10T05:40:35;20.10;1.00
15991;DHT22;8100;50.994;4.538;2023-06-10T05:43:23;20.10;99.90
15991;DHT22;8100;50.994;4.538;2023-06-10T05:46:10;20.20;99.90
15991;DHT22;8100;50.994;4.538;2023-06-10T05:48:57;20.40;99.90
15991;DHT22;8100;50.994;4.538;2023-06-10T05:51:46;20.50;99.90
15991;DHT22;8100;50.994;4.538;2023-06-10T05:54:33;20.60;99.90
15991;DHT22;8100;50.994;4.538;2023-06-10T05:57:20;20.80;99.90
15991;DHT22;8100;50.994;4.538;2023-06-10T06:00:08;20.90;99.90
15991;DHT22;8100;50.994;4.538;2023-06-10T06:02:55;21.00;1.00
15991;DHT22;8100;50.994;4.538;2023-06-10T06:05:44;21.00;1.00
15991;DHT22;8100;50.994;4.538;2023-06-10T06:08:33;21.10;99.90
15991;DHT22;8100;50.994;4.538;2023-06-10T06:11:20;21.10;1.00
15991;DHT22;8100;50.994;4.538;2023-06-10T06:14:08;21.30;99.90
15991;DHT22;8100;50.994;4.538;2023-06-10T06:16:55;21.40;1.00
15991;DHT22;8100;50.994;4.538;2023-06-10T06:19:42;21.70;99.90
15991;DHT22;8100;50.994;4.538;2023-06-10T06:22:29;21.70;1.00
15991;DHT22;8100;50.994;4.538;2023-06-10T06:25:18;21.80;1.00
15991;DHT22;8100;50.994;4.538;2023-06-10T06:28:06;21.90;1.00
15991;DHT22;8100;50.994;4.538;2023-06-10T06:30:53;22.00;1.00
15991;DHT22;8100;50.994;4.538;2023-06-10T06:33:40;22.10;1.00
15991;DHT22;8100;50.994;4.538;2023-06-10T06:36:28;22.10;1.00
15991;DHT22;8100;50.994;4.538;2023-06-10T06:39:15;22.30;1.00
15991;DHT22;8100;50.994;4.538;2023-06-10T06:42:04;22.50;1.00
15991;DHT22;8100;50.994;4.538;2023-06-10T06:44:52;22.80;1.00
15991;DHT22;8100;50.994;4.538;2023-06-10T06:47:39;23.00;99.90
15991;DHT22;8100;50.994;4.538;2023-06-10T06:50:26;23.20;99.90
15991;DHT22;8100;50.994;4.538;2023-06-10T06:53:14;23.30;1.00
15991;DHT22;8100;50.994;4.538;2023-06-10T06:56:01;23.50;99.90
15991;DHT22;8100;50.994;4.538;2023-06-10T06:58:50;23.70;1.00
15991;DHT22;8100;50.994;4.538;2023-06-10T07:01:37;23.90;1.00
15991;DHT22;8100;50.994;4.538;2023-06-10T07:04:24;23.70;99.90
15991;DHT22;8100;50.994;4.538;2023-06-10T07:07:12;23.80;99.90
15991;DHT22;8100;50.994;4.538;2023-06-10T07:09:59;23.90;1.00
15991;DHT22;8100;50.994;4.538;2023-06-10T07:12:46;24.20;1.00
15991;DHT22;8100;50.994;4.538;2023-06-10T07:15:35;24.30;99.90
15991;DHT22;8100;50.994;4.538;2023-06-10T07:18:22;24.30;99.90
15991;DHT22;8100;50.994;4.538;2023-06-10T07:21:09;24.30;4.30
15991;DHT22;8100;50.994;4.538;2023-06-10T07:23:57;24.40;1.00
15991;DHT22;8100;50.994;4.538;2023-06-10T07:26:44;24.60;22.50
15991;DHT22;8100;50.994;4.538;2023-06-10T07:29:31;24.60;1.00
15991;DHT22;8100;50.994;4.538;2023-06-10T07:32:20;24.70;1.00
15991;DHT22;8100;50.994;4.538;2023-06-10T07:35:10;24.80;1.00
15991;DHT22;8100;50.994;4.538;2023-06-10T07:37:57;24.80;1.00
15991;DHT22;8100;50.994;4.538;2023-06-10T07:40:45;24.80;1.00
15991;DHT22;8100;50.994;4.538;2023-06-10T07:43:32;25.00;1.00
15991;DHT22;8100;50.994;4.538;2023-06-10T07:46:19;25.00;99.90
15991;DHT22;8100;50.994;4.538;2023-06-10T07:49:08;25.10;1.00
15991;DHT22;8100;50.994;4.538;2023-06-10T07:51:55;25.30;99.90
15991;DHT22;8100;50.994;4.538;2023-06-10T07:54:43;25.30;99.90
15991;DHT22;8100;50.994;4.538;2023-06-10T07:57:30;25.50;99.90
15991;DHT22;8100;50.994;4.538;2023-06-10T08:00:21;25.90;1.00
15991;DHT22;8100;50.994;4.538;2023-06-10T08:03:08;26.00;99.90
15991;DHT22;8100;50.994;4.538;2023-06-10T08:05:57;26.00;99.90
15991;DHT22;8100;50.994;4.538;2023-06-10T08:08:44;26.00;1.00
15991;DHT22;8100;50.994;4.538;2023-06-10T08:11:31;26.20;96.80
15991;DHT22;8100;50.994;4.538;2023-06-10T08:14:19;26.50;99.90
15991;DHT22;8100;50.994;4.538;2023-06-10T08:17:06;26.60;9.90
15991;DHT22;8100;50.994;4.538;2023-06-10T08:19:53;26.60;1.00
15991;DHT22;8100;50.994;4.538;2023-06-10T08:22:42;26.70;1.00
15991;DHT22;8100;50.994;4.538;2023-06-10T08:25:29;26.90;1.00
15991;DHT22;8100;50.994;4.538;2023-06-10T08:28:16;27.00;1.00
15991;DHT22;8100;50.994;4.538;2023-06-10T08:31:04;27.20;1.00
15991;DHT22;8100;50.994;4.538;2023-06-10T08:33:51;27.00;99.90
15991;DHT22;8100;50.994;4.538;2023-06-10T08:36:38;27.50;1.00
15991;DHT22;8100;50.994;4.538;2023-06-10T08:39:27;27.50;99.90
15991;DHT22;8100;50.994;4.538;2023-06-10T08:42:22;27.70;99.90
15991;DHT22;8100;50.994;4.538;2023-06-10T08:45:15;27.70;99.90
15991;DHT22;8100;50.994;4.538;2023-06-10T08:48:04;27.70;99.90
15991;DHT22;8100;50.994;4.538;2023-06-10T08:50:54;27.70;99.90
15991;DHT22;8100;50.994;4.538;2023-06-10T08:53:56;27.90;99.90
15991;DHT22;8100;50.994;4.538;2023-06-10T08:56:50;28.10;99.90
15991;DHT22;8100;50.994;4.538;2023-06-10T08:59:38;28.20;62.70
15991;DHT22;8100;50.994;4.538;2023-06-10T09:02:27;28.30;1.00
15991;DHT22;8100;50.994;4.538;2023-06-10T09:05:15;28.30;1.00
15991;DHT22;8100;50.994;4.538;2023-06-10T09:08:05;28.20;1.00
15991;DHT22;8100;50.994;4.538;2023-06-10T09:10:52;28.40;1.00
15991;DHT22;8100;50.994;4.538;2023-06-10T09:13:41;28.60;1.00
15991;DHT22;8100;50.994;4.538;2023-06-10T09:16:28;29.00;1.00
15991;DHT22;8100;50.994;4.538;2023-06-10T09:19:17;29.00;1.00
15991;DHT22;8100;50.994;4.538;2023-06-10T09:22:07;29.10;1.00
15991;DHT22;8100;50.994;4.538;2023-06-10T09:25:03;29.20;1.00
15991;DHT22;8100;50.994;4.538;2023-06-10T09:27:52;29.40;1.00
15991;DHT22;8100;50.994;4.538;2023-06-10T09:30:43;29.40;1.00
15991;DHT22;8100;50.994;4.538;2023-06-10T09:33:30;29.00;99.90
15991;DHT22;8100;50.994;4.538;2023-06-10T09:36:21;28.70;99.90
15991;DHT22;8100;50.994;4.538;2023-06-10T09:39:15;28.80;99.90
15991;DHT22;8100;50.994;4.538;2023-06-10T09:42:15;29.00;99.90
15991;DHT22;8100;50.994;4.538;2023-06-10T09:45:04;29.10;99.90
15991;DHT22;8100;50.994;4.538;2023-06-10T09:47:53;29.40;99.90
15991;DHT22;8100;50.994;4.538;2023-06-10T09:50:45;29.20;99.90
15991;DHT22;8100;50.994;4.538;2023-06-10T09:53:33;29.30;99.90
15991;DHT22;8100;50.994;4.538;2023-06-10T09:56:20;29.30;99.90
15991;DHT22;8100;50.994;4.538;2023-06-10T09:59:09;29.40;99.90
15991;DHT22;8100;50.994;4.538;2023-06-10T10:01:56;29.30;99.90
15991;DHT22;8100;50.994;4.538;2023-06-10T10:04:45;29.50;99.90
15991;DHT22;8100;50.994;4.538;2023-06-10T10:07:32;29.50;99.90
15991;DHT22;8100;50.994;4.538;2023-06-10T10:10:21;29.70;99.90
15991;DHT22;8100;50.994;4.538;2023-06-10T10:13:08;29.80;99.90
15991;DHT22;8100;50.994;4.538;2023-06-10T10:15:59;29.80;99.90
15991;DHT22;8100;50.994;4.538;2023-06-10T10:18:51;30.00;99.90
15991;DHT22;8100;50.994;4.538;2023-06-10T10:21:50;29.60;67.20
15991;DHT22;8100;50.994;4.538;2023-06-10T10:24:42;29.80;55.70
15991;DHT22;8100;50.994;4.538;2023-06-10T10:27:36;29.70;1.00
15991;DHT22;8100;50.994;4.538;2023-06-10T10:30:26;29.90;1.00
15991;DHT22;8100;50.994;4.538;2023-06-10T10:33:18;30.10;92.70
15991;DHT22;8100;50.994;4.538;2023-06-10T10:36:06;30.30;1.00
15991;DHT22;8100;50.994;4.538;2023-06-10T10:38:56;30.10;1.00
15991;DHT22;8100;50.994;4.538;2023-06-10T10:41:44;30.20;1.00
15991;DHT22;8100;50.994;4.538;2023-06-10T10:44:32;29.80;1.00
15991;DHT22;8100;50.994;4.538;2023-06-10T10:47:21;29.90;1.00
15991;DHT22;8100;50.994;4.538;2023-06-10T10:50:14;30.20;1.00
15991;DHT22;8100;50.994;4.538;2023-06-10T10:53:02;30.30;1.00
15991;DHT22;8100;50.994;4.538;2023-06-10T10:55:59;30.40;1.00
15991;DHT22;8100;50.994;4.538;2023-06-10T10:59:03;30.30;1.00
15991;DHT22;8100;50.994;4.538;2023-06-10T11:01:50;30.00;1.00
15991;DHT22;8100;50.994;4.538;2023-06-10T11:04:44;30.30;1.00
15991;DHT22;8100;50.994;4.538;2023-06-10T11:07:32;30.20;1.00
15991;DHT22;8100;50.994;4.538;2023-06-10T11:10:29;30.00;1.00
15991;DHT22;8100;50.994;4.538;2023-06-10T11:13:20;30.20;1.00
15991;DHT22;8100;50.994;4.538;2023-06-10T11:16:08;30.60;1.00
15991;DHT22;8100;50.994;4.538;2023-06-10T11:19:00;30.90;1.00
15991;DHT22;8100;50.994;4.538;2023-06-10T11:21:59;31.20;1.00
15991;DHT22;8100;50.994;4.538;2023-06-10T11:24:50;31.50;1.00
15991;DHT22;8100;50.994;4.538;2023-06-10T11:27:38;31.40;1.00
15991;DHT22;8100;50.994;4.538;2023-06-10T11:30:34;30.90;1.00
15991;DHT22;8100;50.994;4.538;2023-06-10T11:33:22;30.60;1.00
15991;DHT22;8100;50.994;4.538;2023-06-10T11:36:09;30.40;1.00
15991;DHT22;8100;50.994;4.538;2023-06-10T11:38:59;30.50;1.00
15991;DHT22;8100;50.994;4.538;2023-06-10T11:41:47;30.60;1.00
15991;DHT22;8100;50.994;4.538;2023-06-10T11:44:34;30.70;1.00
15991;DHT22;8100;50.994;4.538;2023-06-10T11:47:24;30.70;1.00
15991;DHT22;8100;50.994;4.538;2023-06-10T11:50:12;30.90;1.00
15991;DHT22;8100;50.994;4.538;2023-06-10T11:53:00;30.80;1.00
15991;DHT22;8100;50.994;4.538;2023-06-10T11:55:50;31.00;1.00
15991;DHT22;8100;50.994;4.538;2023-06-10T11:58:39;31.20;1.00
15991;DHT22;8100;50.994;4.538;2023-06-10T12:01:30;31.10;1.00
15991;DHT22;8100;50.994;4.538;2023-06-10T12:04:20;30.80;1.00
15991;DHT22;8100;50.994;4.538;2023-06-10T12:07:07;31.00;1.00
15991;DHT22;8100;50.994;4.538;2023-06-10T12:09:59;30.60;1.00
15991;DHT22;8100;50.994;4.538;2023-06-10T12:12:46;30.80;1.00
15991;DHT22;8100;50.994;4.538;2023-06-10T12:15:34;31.00;1.00
15991;DHT22;8100;50.994;4.538;2023-06-10T12:18:23;31.10;1.00
15991;DHT22;8100;50.994;4.538;2023-06-10T12:21:19;30.90;1.00
15991;DHT22;8100;50.994;4.538;2023-06-10T12:24:08;30.70;1.00
15991;DHT22;8100;50.994;4.538;2023-06-10T12:26:55;31.20;1.00
15991;DHT22;8100;50.994;4.538;2023-06-10T12:29:51;31.30;1.00
15991;DHT22;8100;50.994;4.538;2023-06-10T12:32:42;31.30;1.00
15991;DHT22;8100;50.994;4.538;2023-06-10T12:35:29;31.20;1.00
15991;DHT22;8100;50.994;4.538;2023-06-10T12:38:23;30.80;1.00
15991;DHT22;8100;50.994;4.538;2023-06-10T12:41:12;31.20;1.00
15991;DHT22;8100;50.994;4.538;2023-06-10T12:44:01;31.40;1.00
15991;DHT22;8100;50.994;4.538;2023-06-10T12:46:54;32.00;1.00
15991;DHT22;8100;50.994;4.538;2023-06-10T12:49:41;31.90;1.00
15991;DHT22;8100;50.994;4.538;2023-06-10T12:52:28;31.60;1.00
15991;DHT22;8100;50.994;4.538;2023-06-10T12:55:17;32.00;1.00
15991;DHT22;8100;50.994;4.538;2023-06-10T12:58:04;31.90;1.00
15991;DHT22;8100;50.994;4.538;2023-06-10T13:00:52;31.80;1.00
15991;DHT22;8100;50.994;4.538;2023-06-10T13:03:39;32.10;1.00
15991;DHT22;8100;50.994;4.538;2023-06-10T13:06:26;32.30;1.00
15991;DHT22;8100;50.994;4.538;2023-06-10T13:09:14;32.50;1.00
15991;DHT22;8100;50.994;4.538;2023-06-10T13:12:04;32.30;1.00
15991;DHT22;8100;50.994;4.538;2023-06-10T13:14:52;32.70;1.00
15991;DHT22;8100;50.994;4.538;2023-06-10T13:17:39;32.10;1.00
15991;DHT22;8100;50.994;4.538;2023-06-10T13:20:26;32.00;1.00
15991;DHT22;8100;50.994;4.538;2023-06-10T13:23:13;32.70;1.00
15991;DHT22;8100;50.994;4.538;2023-06-10T13:26:01;32.90;1.00
15991;DHT22;8100;50.994;4.538;2023-06-10T13:28:50;32.60;1.00
15991;DHT22;8100;50.994;4.538;2023-06-10T13:31:38;32.80;1.00
15991;DHT22;8100;50.994;4.538;2023-06-10T13:34:25;32.70;1.00
15991;DHT22;8100;50.994;4.538;2023-06-10T13:37:13;32.40;1.00
15991;DHT22;8100;50.994;4.538;2023-06-10T13:40:00;33.60;1.00
15991;DHT22;8100;50.994;4.538;2023-06-10T13:42:47;36.40;1.00
15991;DHT22;8100;50.994;4.538;2023-06-10T13:45:37;37.90;1.00
15991;DHT22;8100;50.994;4.538;2023-06-10T13:48:25;39.40;1.00
15991;DHT22;8100;50.994;4.538;2023-06-10T13:51:12;39.00;1.00
15991;DHT22;8100;50.994;4.538;2023-06-10T13:53:59;38.80;1.00
15991;DHT22;8100;50.994;4.538;2023-06-10T13:56:46;39.90;1.00
15991;DHT22;8100;50.994;4.538;2023-06-10T13:59:34;41.60;1.00
15991;DHT22;8100;50.994;4.538;2023-06-10T14:02:22;42.70;1.00
15991;DHT22;8100;50.994;4.538;2023-06-10T14:05:09;41.60;1.00
15991;DHT22;8100;50.994;4.538;2023-06-10T14:07:56;40.30;1.00
15991;DHT22;8100;50.994;4.538;2023-06-10T14:10:44;40.00;1.00
15991;DHT22;8100;50.994;4.538;2023-06-10T14:13:31;40.10;1.00
15991;DHT22;8100;50.994;4.538;2023-06-10T14:16:19;41.20;1.00
15991;DHT22;8100;50.994;4.538;2023-06-10T14:19:08;40.00;1.00
15991;DHT22;8100;50.994;4.538;2023-06-10T14:21:55;40.90;1.00
15991;DHT22;8100;50.994;4.538;2023-06-10T14:24:42;40.80;1.00
15991;DHT22;8100;50.994;4.538;2023-06-10T14:27:29;41.20;1.00
15991;DHT22;8100;50.994;4.538;2023-06-10T14:30:17;40.00;1.00
15991;DHT22;8100;50.994;4.538;2023-06-10T14:33:04;39.40;1.00
15991;DHT22;8100;50.994;4.538;2023-06-10T14:35:53;40.00;1.00
15991;DHT22;8100;50.994;4.538;2023-06-10T14:38:40;40.40;1.00
15991;DHT22;8100;50.994;4.538;2023-06-10T14:41:27;40.90;1.00
15991;DHT22;8100;50.994;4.538;2023-06-10T14:44:14;39.80;99.90
15991;DHT22;8100;50.994;4.538;2023-06-10T14:47:01;39.60;99.90
15991;DHT22;8100;50.994;4.538;2023-06-10T14:49:49;40.10;99.90
15991;DHT22;8100;50.994;4.538;2023-06-10T14:52:37;40.00;99.90
15991;DHT22;8100;50.994;4.538;2023-06-10T14:55:25;40.10;99.90
15991;DHT22;8100;50.994;4.538;2023-06-10T14:58:12;41.10;1.00
15991;DHT22;8100;50.994;4.538;2023-06-10T15:01:00;40.30;1.00
15991;DHT22;8100;50.994;4.538;2023-06-10T15:03:48;40.50;1.00
15991;DHT22;8100;50.994;4.538;2023-06-10T15:06:35;39.80;1.00
15991;DHT22;8100;50.994;4.538;2023-06-10T15:09:24;40.00;1.00
15991;DHT22;8100;50.994;4.538;2023-06-10T15:12:11;39.80;1.00
15991;DHT22;8100;50.994;4.538;2023-06-10T15:14:58;40.90;1.00
15991;DHT22;8100;50.994;4.538;2023-06-10T15:17:46;40.60;99.90
15991;DHT22;8100;50.994;4.538;2023-06-10T15:20:33;40.80;1.00
15991;DHT22;8100;50.994;4.538;2023-06-10T15:23:20;40.00;1.00
15991;DHT22;8100;50.994;4.538;2023-06-10T15:26:09;40.60;1.00
15991;DHT22;8100;50.994;4.538;2023-06-10T15:28:56;40.80;1.00
15991;DHT22;8100;50.994;4.538;2023-06-10T15:31:44;39.20;1.00
15991;DHT22;8100;50.994;4.538;2023-06-10T15:34:31;39.90;1.00
15991;DHT22;8100;50.994;4.538;2023-06-10T15:37:18;41.00;1.00
15991;DHT22;8100;50.994;4.538;2023-06-10T15:40:07;41.00;1.00
15991;DHT22;8100;50.994;4.538;2023-06-10T15:42:56;41.50;1.00
15991;DHT22;8100;50.994;4.538;2023-06-10T15:45:43;41.30;1.00
15991;DHT22;8100;50.994;4.538;2023-06-10T15:48:30;40.90;1.00
15991;DHT22;8100;50.994;4.538;2023-06-10T15:51:18;40.40;1.00
15991;DHT22;8100;50.994;4.538;2023-06-10T15:54:05;40.70;1.00
15991;DHT22;8100;50.994;4.538;2023-06-10T15:56:52;40.70;1.00
15991;DHT22;8100;50.994;4.538;2023-06-10T15:59:41;40.40;1.00
15991;DHT22;8100;50.994;4.538;2023-06-10T16:02:28;39.90;1.00
15991;DHT22;8100;50.994;4.538;2023-06-10T16:05:16;39.90;1.00
15991;DHT22;8100;50.994;4.538;2023-06-10T16:08:03;39.40;99.90
15991;DHT22;8100;50.994;4.538;2023-06-10T16:10:51;39.50;99.90
15991;DHT22;8100;50.994;4.538;2023-06-10T16:13:38;41.00;99.90
15991;DHT22;8100;50.994;4.538;2023-06-10T16:16:28;41.20;99.90
15991;DHT22;8100;50.994;4.538;2023-06-10T16:19:15;40.60;99.90
15991;DHT22;8100;50.994;4.538;2023-06-10T16:22:03;40.90;99.90
15991;DHT22;8100;50.994;4.538;2023-06-10T16:24:50;40.10;99.90
15991;DHT22;8100;50.994;4.538;2023-06-10T16:27:37;39.10;99.90
15991;DHT22;8100;50.994;4.538;2023-06-10T16:30:24;37.50;99.90
15991;DHT22;8100;50.994;4.538;2023-06-10T16:33:13;35.10;99.90
15991;DHT22;8100;50.994;4.538;2023-06-10T16:36:02;33.70;99.90
15991;DHT22;8100;50.994;4.538;2023-06-10T16:38:49;32.70;99.90
15991;DHT22;8100;50.994;4.538;2023-06-10T16:41:37;32.50;99.90
15991;DHT22;8100;50.994;4.538;2023-06-10T16:44:25;32.00;99.90
15991;DHT22;8100;50.994;4.538;2023-06-10T16:47:12;31.80;99.90
15991;DHT22;8100;50.994;4.538;2023-06-10T16:50:01;31.60;99.90
15991;DHT22;8100;50.994;4.538;2023-06-10T16:52:49;31.30;99.90
15991;DHT22;8100;50.994;4.538;2023-06-10T16:55:36;31.40;99.90
15991;DHT22;8100;50.994;4.538;2023-06-10T16:58:24;31.40;99.90
15991;DHT22;8100;50.994;4.538;2023-06-10T17:01:11;31.40;99.90
15991;DHT22;8100;50.994;4.538;2023-06-10T17:03:58;31.40;99.90
15991;DHT22;8100;50.994;4.538;2023-06-10T17:06:47;31.20;99.90
15991;DHT22;8100;50.994;4.538;2023-06-10T17:09:34;31.10;99.90
15991;DHT22;8100;50.994;4.538;2023-06-10T17:12:22;31.10;99.90
15991;DHT22;8100;50.994;4.538;2023-06-10T17:15:09;31.00;99.90
15991;DHT22;8100;50.994;4.538;2023-06-10T17:17:57;31.00;99.90
15991;DHT22;8100;50.994;4.538;2023-06-10T17:20:44;30.90;99.90
15991;DHT22;8100;50.994;4.538;2023-06-10T17:23:32;30.80;99.90
15991;DHT22;8100;50.994;4.538;2023-06-10T17:26:20;30.90;99.90
15991;DHT22;8100;50.994;4.538;2023-06-10T17:29:07;30.80;99.90
15991;DHT22;8100;50.994;4.538;2023-06-10T17:31:55;30.80;99.90
15991;DHT22;8100;50.994;4.538;2023-06-10T17:34:42;30.70;99.90
15991;DHT22;8100;50.994;4.538;2023-06-10T17:37:29;30.60;99.90
15991;DHT22;8100;50.994;4.538;2023-06-10T17:40:18;30.60;99.90
15991;DHT22;8100;50.994;4.538;2023-06-10T17:43:05;30.60;99.90
15991;DHT22;8100;50.994;4.538;2023-06-10T17:45:52;30.50;99.90
15991;DHT22;8100;50.994;4.538;2023-06-10T17:48:39;30.50;99.90
15991;DHT22;8100;50.994;4.538;2023-06-10T17:51:27;30.40;51.40
15991;DHT22;8100;50.994;4.538;2023-06-10T17:54:14;30.30;99.90
15991;DHT22;8100;50.994;4.538;2023-06-10T17:57:03;30.30;95.40
15991;DHT22;8100;50.994;4.538;2023-06-10T17:59:51;30.10;99.90
15991;DHT22;8100;50.994;4.538;2023-06-10T18:02:38;30.00;99.90
15991;DHT22;8100;50.994;4.538;2023-06-10T18:05:25;30.00;99.90
15991;DHT22;8100;50.994;4.538;2023-06-10T18:08:13;29.90;93.50
15991;DHT22;8100;50.994;4.538;2023-06-10T18:11:00;29.90;90.40
15991;DHT22;8100;50.994;4.538;2023-06-10T18:13:50;29.90;28.60